Startpagina
METAR-TAF:

METAR-TAF

Vliegvelden :

Luchthaven Vladivostok

Vladivostok, Rusland

breedte: 43-07N, lengte: 131-56E, hoogte: 184 m

Actueel weer

Dit bericht is 20 minuten geleden gemaakt, om 06:30 UTC
Wind 4 kt uit het noorden, variërend tussen het noordnoordwesten en het oosten
Temperatuur 31°C
Vochtigheid 52%
Druk 1005 hPa
Zicht 10 km of meer

METAR: UHWW 250630Z 36002MPS 330V080 9999 NSC 31/20 Q1005 R07R/0///70 NOSIG RMK QFE753

Tijdstip: 16:50 (06:50 UTC)

Verwachting

Dit bericht is 1 uur en het 50 minuten geleden gemaakt, om 05:00 UTC
Verwachting geldig van 25 om 06 UTC tot 26 om 06 UTC
Wind 6 kt uit het zuidzuidoosten met uitschieters tot 17 kt
Zicht 10 km of meer
Gebroken wolken op 2000 ft
Wijzigt naar
van 25 om 12 UTC tot 25 om 15 UTC
Zicht: 6000 m
Gebroken wolken op 1600 ft, Cumulonimbus.
lichte regenbuien,

TAF: UHWW 250500Z 2506/2606 16003G09MPS 9999 BKN020 BECMG 2512/2515 6000 -SHRA BKN016CB

Waarnemingen en weersverwachtingen van meer dan 4000 vliegvelden (METAR en TAF).

De beschikbare stations zijn de gele en rode punten op de kaart.

Ga met uw muis naar het station om de naam te zien.

Klik dan om waarnemingen en weersverwachtingen te zien.

kaart wijzigen: klik op de groene knoppen met een zwart kruis om in te zoomen, op de groene knop met een streepje om uit te zoomen of op de groene pijlen voor aangrenzende kaarten.


METAR-TAF: